Time;durP1;ratioP1;P1;durP2;ratioP2;P2;SDS_P1;SDS_P2;PMS_P1;PMS_P2;Temp;Humidity;BMP_temperature;BMP_pressure;BME280_temperature;BME280_humidity;BME280_pressure;Samples;Min_cycle;Max_cycle;Signal;HPM_P1;HPM_P2
2022/04/08 00:02:08;;;;;;;6.27;1.40;;;;;;;;;;5125045;27;20454;-74
2022/04/08 00:04:35;;;;;;;6.20;1.47;;;;;;;;;;5114263;27;20447;-71
2022/04/08 00:07:03;;;;;;;1.30;0.83;;;;;;;;;;5124988;27;20875;-71
2022/04/08 00:09:30;;;;;;;4.03;1.17;;;;;;;;;;5129330;27;20542;-73
2022/04/08 00:11:57;;;;;;;5.70;1.20;;;;;;;;;;5124007;27;20530;-73
2022/04/08 00:14:26;;;;;;;1.93;1.23;;;;;;;;;;5132053;27;20469;-76
2022/04/08 00:16:53;;;;;;;4.77;1.27;;;;;;;;;;5124938;27;21110;-72
2022/04/08 00:19:20;;;;;;;4.80;1.37;;;;;;;;;;5112218;27;20458;-72
2022/04/08 00:21:49;;;;;;;3.30;1.03;;;;;;;;;;5121129;27;20570;-72
2022/04/08 00:24:17;;;;;;;2.30;1.10;;;;;;;;;;5132037;27;20534;-73
2022/04/08 00:26:45;;;;;;;3.90;1.00;;;;;;;;;;5120618;27;20860;-72
2022/04/08 00:29:13;;;;;;;2.80;1.00;;;;;;;;;;5123704;27;20508;-71
2022/04/08 00:31:41;;;;;;;3.63;1.20;;;;;;;;;;5121242;27;20455;-73
2022/04/08 00:34:09;;;;;;;3.67;1.00;;;;;;;;;;5125331;27;20771;-72
2022/04/08 00:36:36;;;;;;;3.03;1.37;;;;;;;;;;5120095;27;20497;-72
2022/04/08 00:39:03;;;;;;;2.23;1.00;;;;;;;;;;5131321;27;20479;-71
2022/04/08 00:41:30;;;;;;;5.80;1.60;;;;;;;;;;5120054;27;20470;-72
2022/04/08 00:43:57;;;;;;;5.03;1.23;;;;;;;;;;5123437;27;20534;-73
2022/04/08 00:46:25;;;;;;;4.33;1.10;;;;;;;;;;5126601;27;20493;-71
2022/04/08 00:48:54;;;;;;;3.97;1.40;;;;;;;;;;5110847;27;20938;-72
2022/04/08 00:51:21;;;;;;;4.03;1.43;;;;;;;;;;5119150;27;20526;-72
2022/04/08 00:53:49;;;;;;;4.50;1.10;;;;;;;;;;5123009;27;20947;-72
2022/04/08 00:56:17;;;;;;;1.90;1.53;;;;;;;;;;5124134;27;20487;-73
2022/04/08 00:58:44;;;;;;;3.77;1.63;;;;;;;;;;5129307;27;20454;-72
2022/04/08 01:01:11;;;;;;;7.30;1.40;;;;;;;;;;5115050;27;20562;-72
2022/04/08 01:03:38;;;;;;;4.40;1.13;;;;;;;;;;5112682;28;20482;-72
2022/04/08 01:06:08;;;;;;;1.37;1.00;;;;;;;;;;5125867;27;20533;-71
2022/04/08 01:08:35;;;;;;;3.53;1.10;;;;;;;;;;5125175;27;20533;-72
2022/04/08 01:11:03;;;;;;;4.83;1.93;;;;;;;;;;5125590;27;20440;-71
2022/04/08 01:13:30;;;;;;;3.90;1.53;;;;;;;;;;5125293;27;20458;-71
2022/04/08 01:15:57;;;;;;;6.10;1.77;;;;;;;;;;5131616;27;21001;-71
2022/04/08 01:18:24;;;;;;;2.00;0.97;;;;;;;;;;5130733;27;20534;-72
2022/04/08 01:20:51;;;;;;;5.73;1.20;;;;;;;;;;5131424;27;20471;-72
2022/04/08 01:23:20;;;;;;;3.07;1.20;;;;;;;;;;5123339;27;20440;-73
2022/04/08 01:25:49;;;;;;;1.60;1.07;;;;;;;;;;5123451;27;20533;-73
2022/04/08 01:28:16;;;;;;;1.93;1.10;;;;;;;;;;5110428;28;20448;-72
2022/04/08 01:30:43;;;;;;;1.27;0.80;;;;;;;;;;5119153;28;20789;-72
2022/04/08 01:33:10;;;;;;;1.87;1.03;;;;;;;;;;5125278;28;20482;-71
2022/04/08 01:35:38;;;;;;;7.33;1.37;;;;;;;;;;5125458;27;20912;-71
2022/04/08 01:38:05;;;;;;;2.43;1.00;;;;;;;;;;5122457;28;20462;-73
2022/04/08 01:40:33;;;;;;;4.87;1.50;;;;;;;;;;5125332;27;20967;-73
2022/04/08 01:43:02;;;;;;;3.37;1.47;;;;;;;;;;5127344;28;20461;-71
2022/04/08 01:45:29;;;;;;;4.10;1.30;;;;;;;;;;5123904;27;20851;-70
2022/04/08 01:47:56;;;;;;;1.97;1.10;;;;;;;;;;5127735;28;20455;-72
2022/04/08 01:50:23;;;;;;;2.20;1.27;;;;;;;;;;5129657;27;20997;-72
2022/04/08 01:52:50;;;;;;;3.60;1.40;;;;;;;;;;5133649;27;20466;-71
2022/04/08 01:55:18;;;;;;;3.23;1.03;;;;;;;;;;5135756;27;20972;-72
2022/04/08 01:57:45;;;;;;;1.40;0.80;;;;;;;;;;5137652;27;20438;-72
2022/04/08 02:00:14;;;;;;;1.53;1.23;;;;;;;;;;5134823;27;20474;-74
2022/04/08 02:02:42;;;;;;;5.07;1.17;;;;;;;;;;5131968;27;20518;-72
2022/04/08 02:05:09;;;;;;;3.00;0.93;;;;;;;;;;5117645;27;20444;-70
2022/04/08 02:07:37;;;;;;;5.30;1.40;;;;;;;;;;5129532;27;20979;-71
2022/04/08 02:10:04;;;;;;;2.70;1.00;;;;;;;;;;5130869;27;20487;-71
2022/04/08 02:12:31;;;;;;;6.40;1.43;;;;;;;;;;5120518;27;20470;-71
2022/04/08 02:14:58;;;;;;;4.33;1.10;;;;;;;;;;5132809;27;20504;-72
2022/04/08 02:17:28;;;;;;;1.93;1.23;;;;;;;;;;5132442;27;20485;-71
2022/04/08 02:19:55;;;;;;;2.10;0.97;;;;;;;;;;5129955;27;20500;-72
2022/04/08 02:22:24;;;;;;;3.80;1.03;;;;;;;;;;5125127;27;20683;-71
2022/04/08 02:24:51;;;;;;;3.90;1.30;;;;;;;;;;5128888;27;20450;-71
2022/04/08 02:27:19;;;;;;;4.30;1.50;;;;;;;;;;5134492;27;20447;-71
2022/04/08 02:29:46;;;;;;;2.23;1.03;;;;;;;;;;5133709;27;20503;-72
2022/04/08 02:32:13;;;;;;;6.67;1.20;;;;;;;;;;5112233;27;20470;-71
2022/04/08 02:34:42;;;;;;;4.73;1.20;;;;;;;;;;5127589;27;20491;-72
2022/04/08 02:37:09;;;;;;;3.00;0.73;;;;;;;;;;5125854;27;20477;-71
2022/04/08 02:39:36;;;;;;;2.93;1.10;;;;;;;;;;5130466;27;20558;-72
2022/04/08 02:42:03;;;;;;;2.90;0.90;;;;;;;;;;5125892;27;20478;-71
2022/04/08 02:44:30;;;;;;;2.27;1.27;;;;;;;;;;5124741;27;20461;-72
2022/04/08 02:46:58;;;;;;;3.90;2.07;;;;;;;;;;5126930;27;20447;-72
2022/04/08 02:49:25;;;;;;;2.63;1.10;;;;;;;;;;5123992;27;21019;-72
2022/04/08 02:51:54;;;;;;;5.27;1.13;;;;;;;;;;5118472;27;20878;-71
2022/04/08 02:54:21;;;;;;;1.83;1.20;;;;;;;;;;5122790;27;20482;-71
2022/04/08 02:56:49;;;;;;;5.50;1.33;;;;;;;;;;5131341;27;20478;-71
2022/04/08 02:59:16;;;;;;;4.10;1.20;;;;;;;;;;5131978;27;20495;-72
2022/04/08 03:01:43;;;;;;;4.87;1.20;;;;;;;;;;5124451;27;20482;-72
2022/04/08 03:04:10;;;;;;;9.60;1.50;;;;;;;;;;5118310;27;20797;-72
2022/04/08 03:06:37;;;;;;;4.33;1.03;;;;;;;;;;5129271;27;20447;-72
2022/04/08 03:09:06;;;;;;;4.70;1.40;;;;;;;;;;5132527;27;20855;-70
2022/04/08 03:11:34;;;;;;;2.67;1.37;;;;;;;;;;5130559;27;20809;-71
2022/04/08 03:14:02;;;;;;;1.50;0.83;;;;;;;;;;5133775;27;20489;-72
2022/04/08 03:16:29;;;;;;;1.83;1.20;;;;;;;;;;5125040;27;20448;-72
2022/04/08 03:18:56;;;;;;;4.13;1.40;;;;;;;;;;5131957;27;20534;-71
2022/04/08 03:21:23;;;;;;;4.33;1.43;;;;;;;;;;5131987;27;20563;-71
2022/04/08 03:23:51;;;;;;;6.17;1.33;;;;;;;;;;5133039;27;20927;-72
2022/04/08 03:26:19;;;;;;;5.20;1.20;;;;;;;;;;5129830;27;20449;-72
2022/04/08 03:28:46;;;;;;;2.63;1.37;;;;;;;;;;5131921;27;20443;-72
2022/04/08 03:31:14;;;;;;;2.80;1.17;;;;;;;;;;5127712;27;20442;-70
2022/04/08 03:33:41;;;;;;;3.00;1.13;;;;;;;;;;5114802;27;20527;-72
2022/04/08 03:36:08;;;;;;;4.10;1.73;;;;;;;;;;5113832;27;20471;-71
2022/04/08 03:38:35;;;;;;;4.20;1.60;;;;;;;;;;5124879;27;20970;-71
2022/04/08 03:41:03;;;;;;;4.73;1.10;;;;;;;;;;5128648;27;20811;-71
2022/04/08 03:43:32;;;;;;;3.33;1.13;;;;;;;;;;5101246;27;20456;-73
2022/04/08 03:45:59;;;;;;;1.87;1.20;;;;;;;;;;5118551;27;20502;-72
2022/04/08 03:48:26;;;;;;;2.57;1.27;;;;;;;;;;5116228;27;20487;-72
2022/04/08 03:50:53;;;;;;;3.20;1.20;;;;;;;;;;5124978;27;20454;-71
2022/04/08 03:53:21;;;;;;;8.20;1.60;;;;;;;;;;5132696;27;20964;-72
2022/04/08 03:55:48;;;;;;;6.27;1.03;;;;;;;;;;5124857;27;20497;-71
2022/04/08 03:58:15;;;;;;;4.17;1.00;;;;;;;;;;5123648;27;20511;-71
2022/04/08 04:00:44;;;;;;;2.40;1.27;;;;;;;;;;5118170;27;20803;-71
2022/04/08 04:03:11;;;;;;;4.67;1.07;;;;;;;;;;5124952;27;20479;-72
2022/04/08 04:05:38;;;;;;;2.80;1.13;;;;;;;;;;5120948;27;20582;-71
2022/04/08 04:08:06;;;;;;;2.50;1.30;;;;;;;;;;5123486;27;20547;-72
2022/04/08 04:10:33;;;;;;;3.73;1.20;;;;;;;;;;5128011;27;20450;-71
2022/04/08 04:13:00;;;;;;;7.53;1.40;;;;;;;;;;5124318;27;20543;-72
2022/04/08 04:15:28;;;;;;;2.23;1.10;;;;;;;;;;5126369;27;20447;-72
2022/04/08 04:17:56;;;;;;;3.43;0.93;;;;;;;;;;5129816;27;20541;-72
2022/04/08 04:20:24;;;;;;;5.60;1.47;;;;;;;;;;5123901;27;20478;-71
2022/04/08 04:22:53;;;;;;;1.43;1.00;;;;;;;;;;5130320;27;20500;-72
2022/04/08 04:25:20;;;;;;;3.87;1.33;;;;;;;;;;5131766;27;20504;-71
2022/04/08 04:27:47;;;;;;;3.33;1.40;;;;;;;;;;5122410;27;20436;-72
2022/04/08 04:30:14;;;;;;;10.70;1.40;;;;;;;;;;5116840;27;20446;-73
2022/04/08 04:32:42;;;;;;;1.27;1.00;;;;;;;;;;5119201;27;20884;-73
2022/04/08 04:35:11;;;;;;;1.67;0.93;;;;;;;;;;5129355;27;21018;-73
2022/04/08 04:37:38;;;;;;;5.43;1.30;;;;;;;;;;5119986;27;20471;-73
2022/04/08 04:40:08;;;;;;;6.90;1.63;;;;;;;;;;5130637;27;20474;-73
2022/04/08 04:42:35;;;;;;;4.13;1.30;;;;;;;;;;5127609;27;21016;-73
2022/04/08 04:45:03;;;;;;;4.50;1.50;;;;;;;;;;5132229;27;20525;-73
2022/04/08 04:47:30;;;;;;;5.17;2.03;;;;;;;;;;5129870;27;20888;-74
2022/04/08 04:49:57;;;;;;;4.17;1.50;;;;;;;;;;5131626;27;20487;-73
2022/04/08 04:52:26;;;;;;;4.40;1.37;;;;;;;;;;5131618;27;20923;-74
2022/04/08 04:54:53;;;;;;;3.83;1.47;;;;;;;;;;5132358;27;20543;-73
2022/04/08 04:57:22;;;;;;;6.00;1.73;;;;;;;;;;5112806;27;20501;-73
2022/04/08 04:59:50;;;;;;;4.33;2.47;;;;;;;;;;5132015;27;20454;-73
2022/04/08 05:02:17;;;;;;;3.37;0.90;;;;;;;;;;5130867;27;21034;-72
2022/04/08 05:04:44;;;;;;;3.03;1.13;;;;;;;;;;5117945;27;20521;-73
2022/04/08 05:07:11;;;;;;;4.23;1.70;;;;;;;;;;5124633;27;20507;-73
2022/04/08 05:09:41;;;;;;;4.60;1.20;;;;;;;;;;5131966;27;20946;-73
2022/04/08 05:12:09;;;;;;;2.80;0.90;;;;;;;;;;5131644;27;20539;-73
2022/04/08 05:14:37;;;;;;;3.47;1.03;;;;;;;;;;5132171;27;20529;-73
2022/04/08 05:17:04;;;;;;;2.93;0.87;;;;;;;;;;5130942;27;20443;-73
2022/04/08 05:19:31;;;;;;;4.63;1.47;;;;;;;;;;5132275;27;20457;-73
2022/04/08 05:21:58;;;;;;;3.57;1.30;;;;;;;;;;5131970;27;20479;-74
2022/04/08 05:24:26;;;;;;;5.17;1.47;;;;;;;;;;5131357;27;20854;-75
2022/04/08 05:26:54;;;;;;;3.37;1.70;;;;;;;;;;5131446;27;20477;-73
2022/04/08 05:29:21;;;;;;;4.23;1.00;;;;;;;;;;5133522;27;20849;-72
2022/04/08 05:31:48;;;;;;;3.27;1.13;;;;;;;;;;5135578;27;21013;-73
2022/04/08 05:34:15;;;;;;;2.20;1.27;;;;;;;;;;5129369;27;20443;-73
2022/04/08 05:36:43;;;;;;;4.80;1.43;;;;;;;;;;5131414;27;20464;-73
2022/04/08 05:39:10;;;;;;;6.93;1.50;;;;;;;;;;5126116;27;20570;-73
2022/04/08 05:41:38;;;;;;;3.70;1.03;;;;;;;;;;5135861;27;20489;-74
2022/04/08 05:44:07;;;;;;;4.10;1.33;;;;;;;;;;5135328;27;20449;-72
2022/04/08 05:46:34;;;;;;;8.70;1.90;;;;;;;;;;5135529;27;20438;-73
2022/04/08 05:49:01;;;;;;;2.50;1.10;;;;;;;;;;5135583;27;20481;-73
2022/04/08 05:51:28;;;;;;;1.97;1.23;;;;;;;;;;5136263;27;20499;-72
2022/04/08 05:53:55;;;;;;;6.90;2.00;;;;;;;;;;5136031;27;20553;-73
2022/04/08 05:56:22;;;;;;;2.20;1.50;;;;;;;;;;5134756;27;20821;-73
2022/04/08 05:58:50;;;;;;;8.10;1.37;;;;;;;;;;5135899;27;20549;-73
2022/04/08 06:01:18;;;;;;;3.70;1.30;;;;;;;;;;5135200;27;20481;-72
2022/04/08 06:03:45;;;;;;;4.90;1.37;;;;;;;;;;5122650;27;20539;-73
2022/04/08 06:06:13;;;;;;;5.03;1.77;;;;;;;;;;5134565;27;20451;-73
2022/04/08 06:08:40;;;;;;;5.10;1.40;;;;;;;;;;5135384;27;20541;-73
2022/04/08 06:11:07;;;;;;;8.43;1.37;;;;;;;;;;5134932;27;20535;-73
2022/04/08 06:13:34;;;;;;;3.60;1.20;;;;;;;;;;5134930;27;20454;-73
2022/04/08 06:16:01;;;;;;;7.07;1.20;;;;;;;;;;5135216;27;20478;-74
2022/04/08 06:18:30;;;;;;;3.63;1.17;;;;;;;;;;5135487;27;20994;-74
2022/04/08 06:20:57;;;;;;;1.77;1.03;;;;;;;;;;5135540;27;20441;-74
2022/04/08 06:23:24;;;;;;;4.33;1.50;;;;;;;;;;5134439;27;20518;-73
2022/04/08 06:25:51;;;;;;;3.27;1.73;;;;;;;;;;5135780;27;20549;-74
2022/04/08 06:28:18;;;;;;;3.03;1.63;;;;;;;;;;5134974;27;20476;-73
2022/04/08 06:30:46;;;;;;;5.83;1.23;;;;;;;;;;5135001;27;20485;-73
2022/04/08 06:33:13;;;;;;;3.33;1.80;;;;;;;;;;5128094;27;20509;-73
2022/04/08 06:35:41;;;;;;;2.70;1.70;;;;;;;;;;5134639;27;20534;-73
2022/04/08 06:38:09;;;;;;;4.80;1.63;;;;;;;;;;5120678;27;20500;-74
2022/04/08 06:40:38;;;;;;;1.53;1.20;;;;;;;;;;5134977;27;20481;-75
2022/04/08 06:43:05;;;;;;;4.50;1.27;;;;;;;;;;5134301;27;20474;-73
2022/04/08 06:45:32;;;;;;;7.23;1.17;;;;;;;;;;5134586;27;20466;-72
2022/04/08 06:48:00;;;;;;;7.10;1.83;;;;;;;;;;5134575;27;20518;-72
2022/04/08 06:50:28;;;;;;;5.17;1.27;;;;;;;;;;5134120;27;20453;-73
2022/04/08 06:53:00;;;;;;;3.13;0.90;;;;;;;;;;5134354;27;20496;-74
2022/04/08 06:55:27;;;;;;;3.17;1.07;;;;;;;;;;5134249;27;20443;-73
2022/04/08 06:57:55;;;;;;;2.07;0.90;;;;;;;;;;5134011;27;20533;-74
2022/04/08 07:00:23;;;;;;;6.00;1.33;;;;;;;;;;5133673;27;20537;-73
2022/04/08 07:02:50;;;;;;;3.20;1.33;;;;;;;;;;5129375;27;20490;-72
2022/04/08 07:05:18;;;;;;;3.33;1.17;;;;;;;;;;5126388;27;20798;-72
2022/04/08 07:07:46;;;;;;;2.40;1.40;;;;;;;;;;5134061;27;20503;-73
2022/04/08 07:10:15;;;;;;;2.90;1.30;;;;;;;;;;5134022;27;20463;-72
2022/04/08 07:12:42;;;;;;;4.13;0.93;;;;;;;;;;5133980;27;20529;-73
2022/04/08 07:15:10;;;;;;;2.43;1.20;;;;;;;;;;5133065;27;20566;-72
2022/04/08 07:17:37;;;;;;;1.60;1.17;;;;;;;;;;5133748;27;20550;-74
2022/04/08 07:20:05;;;;;;;3.83;1.50;;;;;;;;;;5133129;27;20526;-73
2022/04/08 07:22:33;;;;;;;1.27;0.83;;;;;;;;;;5133792;27;20482;-74
2022/04/08 07:25:00;;;;;;;8.07;2.03;;;;;;;;;;5133542;27;20808;-74
2022/04/08 07:27:28;;;;;;;4.93;1.70;;;;;;;;;;5133334;27;20449;-73
2022/04/08 07:29:56;;;;;;;1.53;1.07;;;;;;;;;;5133597;27;20443;-73
2022/04/08 07:32:23;;;;;;;1.37;1.07;;;;;;;;;;5132452;27;21157;-73
2022/04/08 07:34:50;;;;;;;7.80;1.63;;;;;;;;;;5128878;27;20861;-73
2022/04/08 07:37:28;;;;;;;2.73;1.30;;;;;;;;;;5123799;27;20446;-72
2022/04/08 07:39:55;;;;;;;3.90;1.03;;;;;;;;;;5130811;27;20477;-72
2022/04/08 07:42:22;;;;;;;1.13;1.00;;;;;;;;;;5133167;27;20484;-73
2022/04/08 07:44:51;;;;;;;2.53;1.00;;;;;;;;;;5133712;27;20535;-74
2022/04/08 07:47:19;;;;;;;2.57;1.10;;;;;;;;;;5133176;27;20553;-73
2022/04/08 07:49:47;;;;;;;2.90;1.20;;;;;;;;;;5134284;27;20454;-73
2022/04/08 07:52:14;;;;;;;1.60;1.00;;;;;;;;;;5132805;27;20557;-74
2022/04/08 07:54:43;;;;;;;2.23;0.90;;;;;;;;;;5133818;27;20533;-74
2022/04/08 07:57:10;;;;;;;3.03;1.07;;;;;;;;;;5133125;27;20450;-73
2022/04/08 07:59:37;;;;;;;1.90;1.23;;;;;;;;;;5133285;27;20847;-73
2022/04/08 08:02:06;;;;;;;4.47;1.10;;;;;;;;;;5133054;27;20535;-72
2022/04/08 08:04:33;;;;;;;4.80;1.00;;;;;;;;;;5118471;27;20938;-72
2022/04/08 08:07:00;;;;;;;3.37;0.70;;;;;;;;;;5132746;27;20498;-73
2022/04/08 08:09:27;;;;;;;2.20;0.97;;;;;;;;;;5133142;27;20790;-73
2022/04/08 08:11:54;;;;;;;3.13;1.10;;;;;;;;;;5132859;27;20447;-73
2022/04/08 08:14:22;;;;;;;1.63;0.93;;;;;;;;;;5132735;27;20537;-74
2022/04/08 08:16:49;;;;;;;0.90;0.60;;;;;;;;;;5132605;27;20442;-74
2022/04/08 08:19:17;;;;;;;6.13;1.10;;;;;;;;;;5132647;27;20445;-73
2022/04/08 08:21:44;;;;;;;1.30;1.00;;;;;;;;;;5133024;27;21018;-73
2022/04/08 08:24:12;;;;;;;2.30;1.10;;;;;;;;;;5132687;27;20478;-74
2022/04/08 08:26:39;;;;;;;4.00;1.37;;;;;;;;;;5132381;27;20478;-73
2022/04/08 08:29:06;;;;;;;1.40;0.90;;;;;;;;;;5132154;27;20534;-73
2022/04/08 08:31:33;;;;;;;1.03;0.73;;;;;;;;;;5132885;27;20447;-73
2022/04/08 08:34:01;;;;;;;1.20;0.90;;;;;;;;;;5126799;27;20455;-74
2022/04/08 08:36:29;;;;;;;2.40;0.90;;;;;;;;;;5130166;27;20945;-74
2022/04/08 08:38:57;;;;;;;1.40;0.80;;;;;;;;;;5121645;27;20510;-73
2022/04/08 08:41:24;;;;;;;6.37;0.93;;;;;;;;;;5132380;27;20526;-73
2022/04/08 08:43:54;;;;;;;0.80;0.63;;;;;;;;;;5132726;27;20517;-73
2022/04/08 08:46:22;;;;;;;3.50;0.67;;;;;;;;;;5131345;27;20483;-73
2022/04/08 08:48:51;;;;;;;1.00;0.70;;;;;;;;;;5132740;27;20523;-72
2022/04/08 08:51:19;;;;;;;1.47;0.77;;;;;;;;;;5131938;27;20461;-74
2022/04/08 08:53:48;;;;;;;2.43;1.03;;;;;;;;;;5132528;27;20443;-73
2022/04/08 08:56:16;;;;;;;1.33;0.70;;;;;;;;;;5131128;27;20996;-73
2022/04/08 08:58:43;;;;;;;1.40;0.77;;;;;;;;;;5132360;27;20950;-73
2022/04/08 09:01:12;;;;;;;0.97;0.60;;;;;;;;;;5131905;27;20474;-73
2022/04/08 09:03:41;;;;;;;1.97;0.87;;;;;;;;;;5120630;27;20486;-73
2022/04/08 09:06:09;;;;;;;1.00;0.60;;;;;;;;;;5131022;27;20523;-73
2022/04/08 09:08:38;;;;;;;1.20;0.83;;;;;;;;;;5132096;27;20446;-73
2022/04/08 09:11:07;;;;;;;1.53;0.90;;;;;;;;;;5131997;27;20450;-72
2022/04/08 09:13:44;;;;;;;1.50;0.90;;;;;;;;;;5131925;27;20499;-73
2022/04/08 09:16:11;;;;;;;2.57;0.80;;;;;;;;;;5131069;27;20443;-73
2022/04/08 09:18:41;;;;;;;1.30;0.70;;;;;;;;;;5131810;27;20919;-73
2022/04/08 09:21:09;;;;;;;1.80;0.87;;;;;;;;;;5131937;27;20430;-73
2022/04/08 09:23:36;;;;;;;3.60;0.77;;;;;;;;;;5132046;27;20478;-74
2022/04/08 09:26:05;;;;;;;2.50;0.90;;;;;;;;;;5130809;27;20461;-73
2022/04/08 09:28:37;;;;;;;4.40;1.47;;;;;;;;;;5132528;27;20533;-73
2022/04/08 09:31:05;;;;;;;1.07;0.70;;;;;;;;;;5131793;27;20987;-72
2022/04/08 09:33:32;;;;;;;1.50;0.90;;;;;;;;;;5125663;27;20451;-73
2022/04/08 09:36:00;;;;;;;1.00;0.87;;;;;;;;;;5131794;27;20519;-74
2022/04/08 09:38:30;;;;;;;1.00;0.80;;;;;;;;;;5117428;27;20488;-73
2022/04/08 09:41:02;;;;;;;1.20;1.00;;;;;;;;;;5131842;27;20447;-73
2022/04/08 09:43:33;;;;;;;3.63;1.10;;;;;;;;;;5131897;27;20482;-73
2022/04/08 09:46:14;;;;;;;1.73;0.80;;;;;;;;;;5131215;27;20445;-73
2022/04/08 09:48:42;;;;;;;0.70;0.63;;;;;;;;;;5132162;27;20439;-74
2022/04/08 09:51:10;;;;;;;1.90;0.80;;;;;;;;;;5131325;27;20451;-74
2022/04/08 09:53:38;;;;;;;1.30;0.80;;;;;;;;;;5131720;27;20443;-73
2022/04/08 09:56:09;;;;;;;2.70;0.87;;;;;;;;;;5130745;27;20499;-75
2022/04/08 09:58:37;;;;;;;1.00;0.70;;;;;;;;;;5131606;27;20777;-73
2022/04/08 10:01:04;;;;;;;0.93;0.60;;;;;;;;;;5130958;27;20555;-73
2022/04/08 10:03:33;;;;;;;2.40;0.70;;;;;;;;;;5120843;27;21025;-73
2022/04/08 10:06:00;;;;;;;2.00;0.80;;;;;;;;;;5129374;28;20450;-73
2022/04/08 10:08:30;;;;;;;1.47;0.70;;;;;;;;;;5131128;27;20450;-73
2022/04/08 10:11:00;;;;;;;1.07;0.80;;;;;;;;;;5131232;27;20455;-73
2022/04/08 10:13:33;;;;;;;2.03;0.70;;;;;;;;;;5131109;27;20443;-73
2022/04/08 10:16:02;;;;;;;1.10;0.77;;;;;;;;;;5134824;27;20466;-73
2022/04/08 10:18:38;;;;;;;3.67;1.17;;;;;;;;;;5135437;27;20439;-74
2022/04/08 10:21:06;;;;;;;1.00;0.77;;;;;;;;;;5135076;27;20784;-73
2022/04/08 10:23:37;;;;;;;4.70;0.80;;;;;;;;;;5135069;27;20492;-73
2022/04/08 10:26:05;;;;;;;4.63;1.20;;;;;;;;;;5134353;27;20808;-73
2022/04/08 10:28:36;;;;;;;1.00;0.80;;;;;;;;;;5135389;27;20451;-73
2022/04/08 10:31:14;;;;;;;1.23;0.80;;;;;;;;;;5135003;27;20442;-72
2022/04/08 10:33:47;;;;;;;3.40;0.80;;;;;;;;;;5128476;27;20449;-74
2022/04/08 10:36:14;;;;;;;1.50;1.20;;;;;;;;;;5133709;27;20537;-74
2022/04/08 10:38:41;;;;;;;2.53;0.97;;;;;;;;;;5121584;27;20492;-74
2022/04/08 10:41:10;;;;;;;2.53;1.00;;;;;;;;;;5134165;27;20446;-73
2022/04/08 10:43:44;;;;;;;1.33;1.00;;;;;;;;;;5134722;27;20482;-75
2022/04/08 10:46:12;;;;;;;1.20;0.70;;;;;;;;;;5133740;27;20530;-73
2022/04/08 10:48:40;;;;;;;0.90;0.60;;;;;;;;;;5134576;27;20447;-73
2022/04/08 10:51:11;;;;;;;2.30;1.50;;;;;;;;;;5134320;27;20439;-73
2022/04/08 10:53:41;;;;;;;1.17;0.70;;;;;;;;;;5135053;27;20530;-74
2022/04/08 10:56:10;;;;;;;3.50;0.80;;;;;;;;;;5133688;27;20439;-75
2022/04/08 10:58:41;;;;;;;1.17;0.90;;;;;;;;;;5135244;27;20447;-73
2022/04/08 11:01:15;;;;;;;2.60;1.17;;;;;;;;;;5133972;27;20478;-77
2022/04/08 11:03:46;;;;;;;2.23;0.90;;;;;;;;;;5121810;27;20573;-76
2022/04/08 11:06:16;;;;;;;2.60;0.87;;;;;;;;;;5132427;27;20931;-73
2022/04/08 11:08:44;;;;;;;1.00;0.70;;;;;;;;;;5134138;27;20461;-74
2022/04/08 11:11:11;;;;;;;3.13;1.70;;;;;;;;;;5106770;27;20438;-74
2022/04/08 11:13:41;;;;;;;1.47;0.60;;;;;;;;;;5134242;27;20457;-74
2022/04/08 11:16:08;;;;;;;1.37;0.90;;;;;;;;;;5133154;27;20533;-72
2022/04/08 11:18:36;;;;;;;3.80;0.90;;;;;;;;;;5134172;27;20469;-74
2022/04/08 11:21:03;;;;;;;2.57;1.00;;;;;;;;;;5134059;27;20519;-74
2022/04/08 11:23:33;;;;;;;2.77;1.20;;;;;;;;;;5133841;27;20521;-74
2022/04/08 11:26:01;;;;;;;2.30;1.10;;;;;;;;;;5132773;27;20492;-74
2022/04/08 11:28:28;;;;;;;1.07;0.97;;;;;;;;;;5134474;27;20449;-73
2022/04/08 11:30:56;;;;;;;2.20;0.87;;;;;;;;;;5133914;27;21003;-74
2022/04/08 11:33:24;;;;;;;1.93;0.80;;;;;;;;;;5126663;27;20482;-72
2022/04/08 11:35:56;;;;;;;2.13;1.10;;;;;;;;;;5133632;27;20449;-73
2022/04/08 11:38:24;;;;;;;0.87;0.70;;;;;;;;;;5119246;27;20454;-72
2022/04/08 11:40:52;;;;;;;1.27;0.80;;;;;;;;;;5133498;27;20535;-73
2022/04/08 11:43:20;;;;;;;1.30;0.90;;;;;;;;;;5132890;27;20482;-75
2022/04/08 11:45:48;;;;;;;0.90;0.70;;;;;;;;;;5133389;27;20455;-73
2022/04/08 11:48:18;;;;;;;0.90;0.70;;;;;;;;;;5132881;27;20482;-73
2022/04/08 11:50:46;;;;;;;3.43;0.87;;;;;;;;;;5133358;27;20922;-72
2022/04/08 11:53:17;;;;;;;1.80;1.10;;;;;;;;;;5132789;27;20938;-72
2022/04/08 11:55:55;;;;;;;1.40;1.00;;;;;;;;;;5133426;27;20530;-73
2022/04/08 11:58:23;;;;;;;2.20;0.97;;;;;;;;;;5133414;27;20784;-74
2022/04/08 12:00:51;;;;;;;2.50;1.67;;;;;;;;;;5135435;27;20493;-72
2022/04/08 12:03:21;;;;;;;1.40;1.17;;;;;;;;;;5126046;27;20848;-73
2022/04/08 12:05:49;;;;;;;1.07;0.90;;;;;;;;;;5130566;27;20538;-73
2022/04/08 12:08:16;;;;;;;1.20;0.97;;;;;;;;;;5134402;27;20486;-73
2022/04/08 12:10:43;;;;;;;1.57;0.97;;;;;;;;;;5134128;27;20451;-74
2022/04/08 12:13:16;;;;;;;1.27;1.00;;;;;;;;;;5133092;27;20504;-74
2022/04/08 12:15:44;;;;;;;1.20;1.10;;;;;;;;;;5133607;27;20529;-73
2022/04/08 12:18:11;;;;;;;2.43;1.50;;;;;;;;;;5132823;27;20507;-72
2022/04/08 12:20:40;;;;;;;1.70;1.20;;;;;;;;;;5132841;27;20521;-73
2022/04/08 12:23:07;;;;;;;1.07;0.90;;;;;;;;;;5132481;27;20491;-73
2022/04/08 12:25:34;;;;;;;4.13;1.67;;;;;;;;;;5131909;27;20565;-73
2022/04/08 12:28:01;;;;;;;2.40;1.30;;;;;;;;;;5132601;27;20485;-73
2022/04/08 12:30:31;;;;;;;1.83;1.73;;;;;;;;;;5133059;27;20449;-73
2022/04/08 12:32:58;;;;;;;1.73;1.63;;;;;;;;;;5127581;27;20475;-74
2022/04/08 12:35:26;;;;;;;5.13;2.23;;;;;;;;;;5130747;27;20947;-74
2022/04/08 12:37:54;;;;;;;1.70;1.47;;;;;;;;;;5118494;27;20455;-74
2022/04/08 12:40:21;;;;;;;2.53;1.00;;;;;;;;;;5132274;27;20518;-74
2022/04/08 12:42:48;;;;;;;1.60;1.33;;;;;;;;;;5132342;27;20450;-74
2022/04/08 12:45:16;;;;;;;2.43;1.70;;;;;;;;;;5131444;27;20623;-73
2022/04/08 12:47:44;;;;;;;1.60;1.40;;;;;;;;;;5132166;27;20538;-72
2022/04/08 12:50:11;;;;;;;3.37;1.50;;;;;;;;;;5132022;27;20529;-74
2022/04/08 12:52:41;;;;;;;2.77;1.57;;;;;;;;;;5132453;27;20809;-73
2022/04/08 12:55:09;;;;;;;1.83;1.50;;;;;;;;;;5131272;27;20488;-73
2022/04/08 12:57:36;;;;;;;1.60;1.37;;;;;;;;;;5131944;27;20457;-74
2022/04/08 13:00:11;;;;;;;1.70;1.50;;;;;;;;;;5131986;27;20847;-71
2022/04/08 13:02:38;;;;;;;1.50;1.40;;;;;;;;;;5129478;27;20547;-74
2022/04/08 13:05:07;;;;;;;1.87;1.23;;;;;;;;;;5120758;27;20576;-72
2022/04/08 13:07:35;;;;;;;2.40;2.20;;;;;;;;;;5132012;27;20873;-73
2022/04/08 13:10:02;;;;;;;1.70;1.20;;;;;;;;;;5132657;27;20455;-73
2022/04/08 13:12:30;;;;;;;3.40;1.60;;;;;;;;;;5132010;27;20451;-74
2022/04/08 13:14:57;;;;;;;1.77;1.50;;;;;;;;;;5131785;27;20503;-73
2022/04/08 13:17:25;;;;;;;2.90;1.80;;;;;;;;;;5117560;27;20937;-73
2022/04/08 13:19:52;;;;;;;2.33;1.40;;;;;;;;;;5132097;27;20443;-73
2022/04/08 13:22:21;;;;;;;2.20;1.27;;;;;;;;;;5131358;27;20969;-72
2022/04/08 13:24:48;;;;;;;2.20;1.10;;;;;;;;;;5131345;27;21007;-72
2022/04/08 13:27:15;;;;;;;2.60;1.23;;;;;;;;;;5131208;27;20525;-73
2022/04/08 13:29:45;;;;;;;2.13;1.17;;;;;;;;;;5132125;27;20442;-73
2022/04/08 13:32:12;;;;;;;1.30;1.07;;;;;;;;;;5131313;27;20459;-73
2022/04/08 13:34:39;;;;;;;1.70;1.00;;;;;;;;;;5124747;27;20530;-73
2022/04/08 13:37:08;;;;;;;4.40;1.63;;;;;;;;;;5123603;27;20530;-72
2022/04/08 13:39:37;;;;;;;2.50;1.27;;;;;;;;;;5125659;28;20531;-73
2022/04/08 13:42:04;;;;;;;2.20;1.20;;;;;;;;;;5123032;27;20999;-73
2022/04/08 13:44:33;;;;;;;1.30;1.20;;;;;;;;;;5126304;28;20475;-73
2022/04/08 13:47:00;;;;;;;2.80;2.03;;;;;;;;;;5132155;27;20451;-73
2022/04/08 13:49:27;;;;;;;1.80;1.53;;;;;;;;;;5131947;27;20541;-73
2022/04/08 13:51:55;;;;;;;1.97;1.70;;;;;;;;;;5136259;27;20529;-73
2022/04/08 13:54:22;;;;;;;2.77;2.07;;;;;;;;;;5134781;27;20480;-73
2022/04/08 13:56:50;;;;;;;2.23;1.80;;;;;;;;;;5135579;27;20503;-73
2022/04/08 13:59:18;;;;;;;1.70;1.60;;;;;;;;;;5115911;27;20517;-73
2022/04/08 14:01:45;;;;;;;1.93;1.70;;;;;;;;;;5135821;27;20470;-72
2022/04/08 14:04:12;;;;;;;2.40;1.80;;;;;;;;;;5121660;27;20581;-74
2022/04/08 14:06:40;;;;;;;1.93;1.73;;;;;;;;;;5135782;27;20491;-74
2022/04/08 14:09:07;;;;;;;1.87;1.77;;;;;;;;;;5135149;27;20597;-73
2022/04/08 14:11:35;;;;;;;2.57;2.13;;;;;;;;;;5135688;27;20539;-75
2022/04/08 14:14:03;;;;;;;3.40;2.50;;;;;;;;;;5136211;27;20496;-75
2022/04/08 14:16:31;;;;;;;2.60;2.40;;;;;;;;;;5135460;27;20482;-75
2022/04/08 14:18:58;;;;;;;3.60;3.30;;;;;;;;;;5135232;27;20451;-75
2022/04/08 14:21:25;;;;;;;3.97;2.23;;;;;;;;;;5134941;27;20624;-75
2022/04/08 14:23:53;;;;;;;3.07;2.77;;;;;;;;;;5135165;27;20443;-75
2022/04/08 14:26:20;;;;;;;3.00;2.70;;;;;;;;;;5134137;27;20569;-74
2022/04/08 14:28:47;;;;;;;4.47;3.07;;;;;;;;;;5135067;27;20529;-75
2022/04/08 14:31:17;;;;;;;6.43;3.00;;;;;;;;;;5134321;27;20790;-75
2022/04/08 14:33:44;;;;;;;3.23;2.93;;;9.90;31.10;;;;;;5128745;27;20447;-74
2022/04/08 14:36:11;;;;;;;3.13;2.73;;;9.10;99.90;;;;;;5134142;27;20507;-74
2022/04/08 14:38:38;;;;;;;3.77;3.33;;;9.10;99.90;;;;;;5106963;27;20826;-74
2022/04/08 14:41:07;;;;;;;3.73;3.13;;;9.20;99.90;;;;;;5129822;27;20551;-74
2022/04/08 14:43:34;;;;;;;4.13;3.17;;;9.30;99.90;;;;;;5120217;27;20455;-76
2022/04/08 14:46:02;;;;;;;2.53;2.33;;;9.30;99.90;;;;;;5118993;27;20475;-76